Time;durP1;ratioP1;P1;durP2;ratioP2;P2;SDS_P1;SDS_P2;PMS_P1;PMS_P2;Temp;Humidity;BMP_temperature;BMP_pressure;BME280_temperature;BME280_humidity;BME280_pressure;Samples;Min_cycle;Max_cycle;Signal;HPM_P1;HPM_P2
2021/03/29 00:00:35;;;;;;;13.93;3.53;;;11.40;99.90;;;;;;5066898;28;20020;-45
2021/03/29 00:03:02;;;;;;;10.13;3.08;;;11.40;99.90;;;;;;5084385;28;20024;-44
2021/03/29 00:05:31;;;;;;;8.27;2.55;;;11.50;99.90;;;;;;5080062;28;20439;-44
2021/03/29 00:08:04;;;;;;;13.68;4.13;;;11.50;99.90;;;;;;5084544;28;20028;-44
2021/03/29 00:10:31;;;;;;;7.82;3.08;;;11.50;99.90;;;;;;5078605;28;20052;-44
2021/03/29 00:12:58;;;;;;;9.93;3.13;;;11.60;99.90;;;;;;5082105;28;20259;-45
2021/03/29 00:15:28;;;;;;;13.25;3.15;;;11.50;99.90;;;;;;5081240;28;20119;-45
2021/03/29 00:17:54;;;;;;;11.05;3.42;;;11.60;99.90;;;;;;5080390;28;20543;-44
2021/03/29 00:20:24;;;;;;;14.50;3.60;;;11.60;99.90;;;;;;5079878;28;20028;-44
2021/03/29 00:22:50;;;;;;;9.75;3.38;;;11.60;99.90;;;;;;5079285;28;20020;-44
2021/03/29 00:25:18;;;;;;;12.60;3.83;;;11.60;99.90;;;;;;5081588;28;20094;-44
2021/03/29 00:27:43;;;;;;;11.23;3.25;;;11.50;99.90;;;;;;5073932;28;20074;-45
2021/03/29 00:30:17;;;;;;;9.23;3.17;;;11.60;99.90;;;;;;5069782;28;20032;-45
2021/03/29 00:32:44;;;;;;;8.05;3.80;;;11.60;99.90;;;;;;5082510;28;20399;-45
2021/03/29 00:35:12;;;;;;;12.95;3.90;;;11.60;99.90;;;;;;5073141;28;20153;-47
2021/03/29 00:37:41;;;;;;;13.60;3.72;;;11.60;99.90;;;;;;5086361;28;20040;-47
2021/03/29 00:40:09;;;;;;;11.77;3.60;;;11.60;99.90;;;;;;5087487;28;20048;-45
2021/03/29 00:42:36;;;;;;;10.82;3.90;;;11.70;99.90;;;;;;5090130;28;20035;-45
2021/03/29 00:45:05;;;;;;;16.73;4.05;;;11.70;99.90;;;;;;5086347;28;20127;-45
2021/03/29 00:47:32;;;;;;;15.70;3.80;;;11.70;99.90;;;;;;5086007;28;20032;-44
2021/03/29 00:49:58;;;;;;;13.50;3.88;;;11.70;99.90;;;;;;5075177;28;20343;-45
2021/03/29 00:52:25;;;;;;;12.52;4.28;;;11.70;99.90;;;;;;5089698;28;20098;-44
2021/03/29 00:54:52;;;;;;;12.95;4.15;;;11.80;99.90;;;;;;5082772;28;20068;-47
2021/03/29 00:57:18;;;;;;;17.58;4.72;;;11.70;99.90;;;;;;5077697;28;20028;-44
2021/03/29 00:59:46;;;;;;;14.18;4.75;;;11.70;99.90;;;;;;5089252;28;20495;-44
2021/03/29 01:02:12;;;;;;;16.23;4.53;;;11.70;99.90;;;;;;5070953;28;20024;-45
2021/03/29 01:04:38;;;;;;;9.95;3.92;;;11.80;99.90;;;;;;5090923;28;20386;-44
2021/03/29 01:07:04;;;;;;;9.70;4.03;;;11.70;99.90;;;;;;5090184;28;20039;-43
2021/03/29 01:09:30;;;;;;;13.13;4.60;;;11.70;99.90;;;;;;5090723;28;20074;-43
2021/03/29 01:11:57;;;;;;;13.85;4.57;;;11.70;99.90;;;;;;5090671;28;20073;-45
2021/03/29 01:14:28;;;;;;;17.27;5.03;;;11.80;99.90;;;;;;5090797;28;20024;-44
2021/03/29 01:17:18;;;;;;;13.25;4.85;;;11.70;99.90;;;;;;5090016;28;20081;-44
2021/03/29 01:20:03;;;;;;;15.27;5.28;;;11.70;99.90;;;;;;5090873;28;20483;-44
2021/03/29 01:22:40;;;;;;;16.00;4.88;;;11.70;99.90;;;;;;5090413;28;20148;-44
2021/03/29 01:25:27;;;;;;;12.30;4.85;;;11.70;99.90;;;;;;5090130;28;20031;-45
2021/03/29 01:27:54;;;;;;;11.98;4.28;;;11.70;99.90;;;;;;5090663;28;20098;-46
2021/03/29 01:30:22;;;;;;;15.63;4.30;;;11.60;99.90;;;;;;5089959;28;20374;-43
2021/03/29 01:32:49;;;;;;;13.48;4.75;;;11.60;99.90;;;;;;5090800;28;20024;-44
2021/03/29 01:35:21;;;;;;;18.23;5.50;;;11.60;99.90;;;;;;5089395;28;20063;-46
2021/03/29 01:37:49;;;;;;;13.57;5.15;;;11.60;99.90;;;;;;5089889;28;20675;-45
2021/03/29 01:40:18;;;;;;;11.68;5.22;;;11.60;99.90;;;;;;5090126;28;20024;-45
2021/03/29 01:42:45;;;;;;;12.63;4.65;;;11.60;99.90;;;;;;5090344;28;20103;-43
2021/03/29 01:45:12;;;;;;;12.40;4.75;;;11.60;99.90;;;;;;5089378;28;20441;-44
2021/03/29 01:47:38;;;;;;;12.82;5.20;;;11.60;99.90;;;;;;5088999;28;20051;-44
2021/03/29 01:50:05;;;;;;;17.60;5.65;;;11.60;99.90;;;;;;5089497;28;20028;-45
2021/03/29 01:52:31;;;;;;;14.73;5.13;;;11.60;99.90;;;;;;5086712;28;20425;-46
2021/03/29 01:54:58;;;;;;;15.10;5.40;;;11.60;99.90;;;;;;5088485;28;20016;-45
2021/03/29 01:57:24;;;;;;;16.55;5.30;;;11.60;99.90;;;;;;5088675;28;20027;-44
2021/03/29 01:59:49;;;;;;;12.73;5.38;;;11.70;99.90;;;;;;5088814;28;20028;-45
2021/03/29 02:02:16;;;;;;;15.85;5.22;;;11.70;99.90;;;;;;5089305;28;20009;-44
2021/03/29 02:04:42;;;;;;;16.90;6.07;;;11.60;99.90;;;;;;5088620;28;20067;-44
2021/03/29 02:07:08;;;;;;;15.82;5.45;;;11.60;99.90;;;;;;5088101;28;20389;-43
2021/03/29 02:09:35;;;;;;;13.52;5.00;;;11.60;99.90;;;;;;5088775;28;20039;-45
2021/03/29 02:12:05;;;;;;;15.98;5.88;;;11.60;99.90;;;;;;5088770;28;20027;-44
2021/03/29 02:14:33;;;;;;;13.35;5.40;;;11.60;99.90;;;;;;5086124;28;20023;-44
2021/03/29 02:16:59;;;;;;;14.45;5.32;;;11.60;99.90;;;;;;5087838;28;20024;-45
2021/03/29 02:19:28;;;;;;;17.63;6.20;;;11.60;99.90;;;;;;5088645;28;20040;-45
2021/03/29 02:21:54;;;;;;;11.40;5.75;;;11.60;99.90;;;;;;5086340;28;20024;-47
2021/03/29 02:24:22;;;;;;;14.82;6.32;;;11.60;99.90;;;;;;5069681;28;20016;-46
2021/03/29 02:26:48;;;;;;;20.60;6.18;;;11.60;99.90;;;;;;5087380;28;20035;-44
2021/03/29 02:29:19;;;;;;;12.48;5.22;;;11.60;99.90;;;;;;5070170;28;20024;-45
2021/03/29 02:31:44;;;;;;;15.85;5.97;;;11.50;99.90;;;;;;5070144;28;20139;-45
2021/03/29 02:34:13;;;;;;;12.40;5.53;;;11.60;99.90;;;;;;5094818;28;20533;-45
2021/03/29 02:36:39;;;;;;;20.92;6.53;;;11.60;99.90;;;;;;5098434;28;20350;-45
2021/03/29 02:39:05;;;;;;;15.38;6.32;;;11.60;99.90;;;;;;5098043;28;20202;-46
2021/03/29 02:41:32;;;;;;;16.20;6.65;;;11.60;99.90;;;;;;5098199;28;20366;-48
2021/03/29 02:44:00;;;;;;;16.77;6.22;;;11.60;99.90;;;;;;5099362;28;20503;-45
2021/03/29 02:46:28;;;;;;;16.17;6.63;;;11.60;99.90;;;;;;5087714;28;20103;-46
2021/03/29 02:48:55;;;;;;;16.35;6.35;;;11.60;99.90;;;;;;5088265;28;20032;-45
2021/03/29 02:51:22;;;;;;;17.67;6.63;;;11.60;99.90;;;;;;5088162;28;20027;-45
2021/03/29 02:53:56;;;;;;;15.85;6.00;;;11.60;99.90;;;;;;5088223;28;20416;-45
2021/03/29 02:56:25;;;;;;;17.05;5.95;;;11.60;99.90;;;;;;5085230;28;20122;-46
2021/03/29 02:58:59;;;;;;;12.25;5.65;;;11.50;99.90;;;;;;5087827;28;20098;-44
2021/03/29 03:01:28;;;;;;;19.38;6.50;;;11.50;99.90;;;;;;5085889;28;20081;-43
2021/03/29 03:03:55;;;;;;;16.77;6.07;;;11.50;99.90;;;;;;5087994;28;20115;-47
2021/03/29 03:06:23;;;;;;;18.35;6.75;;;11.50;99.90;;;;;;5084901;28;20101;-45
2021/03/29 03:08:50;;;;;;;15.43;5.90;;;11.50;99.90;;;;;;5087316;28;20275;-44
2021/03/29 03:11:18;;;;;;;21.95;6.80;;;11.50;99.90;;;;;;5087739;28;20023;-45
2021/03/29 03:13:45;;;;;;;22.73;6.45;;;11.50;99.90;;;;;;5087659;28;20116;-44
2021/03/29 03:16:11;;;;;;;18.00;6.32;;;11.40;99.90;;;;;;5069659;28;20032;-44
2021/03/29 03:18:40;;;;;;;12.77;5.72;;;11.40;99.90;;;;;;5088531;28;20030;-45
2021/03/29 03:21:07;;;;;;;14.82;5.53;;;11.40;99.90;;;;;;5088489;28;20028;-44
2021/03/29 03:23:33;;;;;;;23.80;6.63;;;11.40;99.90;;;;;;5088327;28;20055;-47
2021/03/29 03:25:59;;;;;;;14.00;5.88;;;11.40;99.90;;;;;;5087737;28;20028;-45
2021/03/29 03:28:27;;;;;;;19.08;5.95;;;11.40;99.90;;;;;;5070201;28;20488;-45
2021/03/29 03:30:58;;;;;;;16.20;5.57;;;11.30;99.90;;;;;;5087917;28;20032;-45
2021/03/29 03:33:28;;;;;;;15.88;6.50;;;11.30;99.90;;;;;;5070027;28;20436;-44
2021/03/29 03:35:54;;;;;;;11.27;5.63;;;11.30;99.90;;;;;;5086274;28;20036;-44
2021/03/29 03:38:28;;;;;;;14.82;6.63;;;11.30;99.90;;;;;;5085737;28;20123;-44
2021/03/29 03:41:02;;;;;;;18.00;5.38;;;11.30;99.90;;;;;;5068580;28;20377;-45
2021/03/29 03:43:30;;;;;;;16.25;5.90;;;11.30;99.90;;;;;;5066200;28;20107;-45
2021/03/29 03:46:13;;;;;;;17.95;5.80;;;11.30;99.90;;;;;;5091212;28;20043;-43
2021/03/29 03:48:39;;;;;;;17.98;6.43;;;11.30;99.90;;;;;;5090061;28;20020;-44
2021/03/29 03:51:06;;;;;;;13.75;5.38;;;11.30;99.90;;;;;;5086754;28;20025;-45
2021/03/29 03:53:32;;;;;;;20.88;6.50;;;11.20;99.90;;;;;;5087639;28;20024;-45
2021/03/29 03:55:59;;;;;;;14.02;5.13;;;11.20;99.90;;;;;;5087386;28;20020;-44
2021/03/29 03:58:25;;;;;;;22.83;7.05;;;11.20;99.90;;;;;;5087918;28;20077;-46
2021/03/29 04:00:52;;;;;;;21.23;5.20;;;11.20;99.90;;;;;;5087963;28;20032;-46
2021/03/29 04:03:17;;;;;;;19.70;5.03;;;11.20;99.90;;;;;;5069539;28;20062;-46
2021/03/29 04:05:43;;;;;;;15.20;4.53;;;11.30;99.90;;;;;;5087606;28;20052;-45
2021/03/29 04:08:10;;;;;;;15.55;5.15;;;11.20;99.90;;;;;;5087658;28;20591;-44
2021/03/29 04:10:42;;;;;;;11.25;4.40;;;11.20;99.90;;;;;;5088256;28;20172;-45
2021/03/29 04:13:11;;;;;;;12.45;4.15;;;11.20;99.90;;;;;;5073535;28;20032;-44
2021/03/29 04:15:37;;;;;;;14.30;4.60;;;11.20;99.90;;;;;;5091268;28;20024;-44
2021/03/29 04:18:04;;;;;;;14.73;5.05;;;11.20;99.80;;;;;;5091649;28;20032;-44
2021/03/29 04:20:29;;;;;;;17.55;4.70;;;11.20;99.70;;;;;;5091875;28;20062;-45
2021/03/29 04:22:55;;;;;;;8.93;3.67;;;11.20;99.60;;;;;;5091484;28;20055;-45
2021/03/29 04:25:21;;;;;;;13.50;4.57;;;11.20;99.90;;;;;;5091118;28;20077;-45
2021/03/29 04:27:46;;;;;;;13.18;4.20;;;11.30;99.40;;;;;;5091458;28;20031;-44
2021/03/29 04:30:12;;;;;;;12.07;4.47;;;11.30;99.30;;;;;;5069416;28;20135;-44
2021/03/29 04:32:39;;;;;;;11.93;4.90;;;11.20;98.80;;;;;;5071204;28;20063;-45
2021/03/29 04:35:06;;;;;;;13.77;4.15;;;11.30;98.70;;;;;;5070803;28;20033;-45
2021/03/29 04:37:31;;;;;;;11.50;4.43;;;11.20;98.70;;;;;;5070729;28;20039;-45
2021/03/29 04:39:57;;;;;;;14.60;4.22;;;11.20;98.70;;;;;;5070864;28;20020;-45
2021/03/29 04:42:22;;;;;;;10.27;3.80;;;11.30;98.30;;;;;;5070860;28;20099;-44
2021/03/29 04:44:48;;;;;;;14.27;4.22;;;11.30;98.30;;;;;;5070927;28;20634;-44
2021/03/29 04:47:13;;;;;;;13.13;4.25;;;11.30;98.50;;;;;;5070360;28;20517;-44
2021/03/29 04:49:41;;;;;;;10.15;3.60;;;11.20;98.30;;;;;;5070739;28;20127;-44
2021/03/29 04:52:07;;;;;;;15.73;4.20;;;11.20;98.70;;;;;;5070841;28;20383;-45
2021/03/29 04:54:33;;;;;;;14.25;4.38;;;11.10;98.30;;;;;;5070605;28;20512;-45
2021/03/29 04:56:58;;;;;;;17.45;4.30;;;11.20;98.40;;;;;;5070192;28;20254;-44
2021/03/29 04:59:24;;;;;;;14.07;3.78;;;11.10;98.00;;;;;;5075864;28;20050;-44
2021/03/29 05:01:49;;;;;;;13.98;5.25;;;11.20;97.90;;;;;;5072697;28;20104;-45
2021/03/29 05:04:15;;;;;;;12.82;3.90;;;11.20;97.90;;;;;;5090854;28;20024;-46
2021/03/29 05:06:41;;;;;;;15.27;4.55;;;11.20;98.10;;;;;;5090323;28;20439;-45
2021/03/29 05:09:07;;;;;;;13.82;4.43;;;11.20;97.90;;;;;;5090494;28;20020;-44
2021/03/29 05:11:45;;;;;;;17.23;4.75;;;11.10;97.90;;;;;;5090814;28;20099;-46
2021/03/29 05:14:11;;;;;;;13.18;4.53;;;11.10;98.00;;;;;;5090568;28;20042;-45
2021/03/29 05:16:38;;;;;;;11.55;4.63;;;11.10;98.20;;;;;;5089760;28;20028;-43
2021/03/29 05:19:03;;;;;;;12.45;3.88;;;11.10;98.50;;;;;;5090569;28;20392;-45
2021/03/29 05:21:29;;;;;;;12.18;3.67;;;11.10;98.40;;;;;;5090689;28;20016;-48
2021/03/29 05:23:54;;;;;;;11.55;3.50;;;11.10;98.40;;;;;;5089042;28;20020;-45
2021/03/29 05:26:20;;;;;;;9.98;3.70;;;11.00;98.40;;;;;;5089972;28;20044;-45
2021/03/29 05:28:45;;;;;;;14.77;4.38;;;11.00;98.60;;;;;;5090271;28;20024;-45
2021/03/29 05:31:11;;;;;;;11.30;4.57;;;11.00;98.70;;;;;;5090121;28;20028;-44
2021/03/29 05:33:37;;;;;;;14.63;4.15;;;11.00;98.80;;;;;;5090376;28;20024;-44
2021/03/29 05:36:03;;;;;;;10.73;3.78;;;11.00;98.90;;;;;;5089130;28;20036;-46
2021/03/29 05:38:28;;;;;;;11.32;3.90;;;10.90;99.00;;;;;;5089350;28;20074;-45
2021/03/29 05:40:54;;;;;;;11.73;4.15;;;10.90;99.20;;;;;;5071195;28;20035;-45
2021/03/29 05:43:20;;;;;;;18.02;4.32;;;10.90;99.20;;;;;;5089623;28;20103;-44
2021/03/29 05:45:49;;;;;;;16.27;4.50;;;11.00;98.90;;;;;;5089093;28;20016;-45
2021/03/29 05:48:14;;;;;;;9.65;3.72;;;11.00;98.80;;;;;;5087383;28;20028;-45
2021/03/29 05:50:40;;;;;;;13.00;3.53;;;10.90;98.90;;;;;;5097233;28;20318;-45
2021/03/29 05:53:05;;;;;;;12.13;4.15;;;10.90;98.90;;;;;;5091138;28;20143;-46
2021/03/29 05:55:35;;;;;;;9.90;3.30;;;10.90;99.10;;;;;;5085578;28;20394;-45
2021/03/29 06:00:39;;;;;;;10.80;4.03;;;11.10;98.70;;;;;;5088757;28;20436;-47
2021/03/29 06:03:17;;;;;;;8.77;3.30;;;11.00;98.60;;;;;;5095583;28;20116;-45
2021/03/29 06:05:43;;;;;;;10.85;3.53;;;11.10;98.50;;;;;;5097107;28;20016;-46
2021/03/29 06:08:09;;;;;;;10.20;3.60;;;11.10;98.20;;;;;;5099200;28;20032;-45
2021/03/29 06:10:35;;;;;;;12.98;4.03;;;11.20;98.00;;;;;;5098259;28;20027;-47
2021/03/29 06:13:17;;;;;;;15.50;4.13;;;11.30;97.60;;;;;;5100326;28;20068;-44
2021/03/29 06:15:44;;;;;;;12.48;3.53;;;11.30;97.40;;;;;;5088023;28;20396;-45
2021/03/29 06:18:11;;;;;;;12.77;3.80;;;11.40;97.70;;;;;;5073571;28;20027;-48
2021/03/29 06:21:22;;;;;;;11.05;3.67;;;11.40;98.00;;;;;;5089232;28;20031;-45
2021/03/29 06:23:59;;;;;;;11.23;3.40;;;11.40;97.40;;;;;;5074681;28;20246;-46
2021/03/29 06:26:31;;;;;;;16.23;4.13;;;11.40;97.50;;;;;;5088514;28;20020;-44
2021/03/29 06:28:57;;;;;;;11.95;3.53;;;11.50;96.80;;;;;;5084225;28;20058;-44
2021/03/29 06:31:31;;;;;;;13.45;4.03;;;11.40;97.10;;;;;;5086348;28;20448;-45
2021/03/29 06:33:58;;;;;;;13.63;3.55;;;11.40;96.70;;;;;;5095322;28;20488;-45
2021/03/29 06:36:36;;;;;;;13.18;3.50;;;11.50;96.70;;;;;;5088283;28;20020;-43
2021/03/29 06:39:13;;;;;;;14.63;3.92;;;11.60;96.60;;;;;;5081318;28;20085;-44
2021/03/29 06:41:39;;;;;;;14.35;3.90;;;11.70;96.40;;;;;;5088706;28;20047;-46
2021/03/29 06:44:06;;;;;;;9.10;3.67;;;11.70;96.10;;;;;;5089279;28;20051;-44
2021/03/29 06:46:33;;;;;;;17.65;3.85;;;11.60;96.20;;;;;;5088337;28;20473;-44
2021/03/29 06:49:01;;;;;;;17.63;4.03;;;11.70;96.00;;;;;;5080423;28;20031;-47
2021/03/29 06:51:32;;;;;;;10.50;3.75;;;11.70;95.90;;;;;;5092446;28;20020;-44
2021/03/29 06:54:07;;;;;;;10.40;3.72;;;11.80;95.80;;;;;;5097160;28;20532;-47
2021/03/29 06:56:36;;;;;;;12.80;3.58;;;11.80;95.80;;;;;;5095536;28;20036;-44
2021/03/29 06:59:05;;;;;;;10.57;3.83;;;11.90;95.90;;;;;;5096848;28;20078;-44
2021/03/29 07:01:32;;;;;;;8.30;3.55;;;11.90;95.40;;;;;;5079771;28;20080;-44
2021/03/29 07:03:58;;;;;;;12.60;3.22;;;12.00;94.80;;;;;;5095979;28;20380;-44
2021/03/29 07:06:30;;;;;;;17.67;4.90;;;12.10;95.00;;;;;;5068747;28;20115;-47
2021/03/29 07:09:07;;;;;;;8.15;2.97;;;12.10;95.10;;;;;;5087600;28;20058;-44
2021/03/29 07:11:37;;;;;;;15.18;4.18;;;12.20;94.70;;;;;;5086695;28;20020;-43
2021/03/29 07:14:07;;;;;;;15.77;4.25;;;12.30;94.10;;;;;;5085829;28;20050;-44
2021/03/29 07:16:33;;;;;;;8.60;4.10;;;12.20;94.60;;;;;;5087292;28;20210;-44
2021/03/29 07:19:08;;;;;;;11.88;3.72;;;12.40;93.40;;;;;;5080848;28;20036;-44
2021/03/29 07:21:35;;;;;;;11.45;3.78;;;12.40;93.70;;;;;;5078774;28;20044;-44
2021/03/29 07:24:03;;;;;;;12.27;3.92;;;12.40;93.00;;;;;;5083480;28;20022;-45
2021/03/29 07:26:38;;;;;;;11.32;3.80;;;12.40;92.90;;;;;;5082659;28;20584;-44
2021/03/29 07:29:20;;;;;;;14.27;3.90;;;12.60;92.70;;;;;;5069069;28;20024;-45
2021/03/29 07:31:57;;;;;;;11.65;3.63;;;12.60;92.60;;;;;;5086945;28;20123;-44
2021/03/29 07:34:43;;;;;;;9.20;3.25;;;12.60;92.40;;;;;;5079856;28;20054;-44
2021/03/29 07:37:36;;;;;;;12.15;4.07;;;12.70;92.30;;;;;;5087452;28;20486;-43
2021/03/29 07:40:06;;;;;;;16.80;4.55;;;12.80;92.10;;;;;;5087901;28;20028;-43
2021/03/29 07:42:34;;;;;;;11.45;3.20;;;12.80;91.90;;;;;;5088026;28;20020;-43
2021/03/29 07:45:06;;;;;;;8.43;3.40;;;12.80;91.50;;;;;;5086899;28;20028;-44
2021/03/29 07:47:42;;;;;;;14.57;3.28;;;13.10;91.00;;;;;;5087718;28;20515;-43
2021/03/29 07:50:10;;;;;;;9.90;4.18;;;13.20;91.10;;;;;;5092925;28;20426;-44
2021/03/29 07:52:40;;;;;;;15.80;4.63;;;13.30;90.90;;;;;;5072365;28;20024;-45
2021/03/29 07:55:25;;;;;;;13.85;4.22;;;13.40;90.90;;;;;;5078727;28;20122;-44
2021/03/29 07:57:51;;;;;;;10.57;3.80;;;13.40;90.10;;;;;;5064737;28;20028;-44
2021/03/29 08:00:23;;;;;;;13.52;3.80;;;13.40;90.20;;;;;;5059377;28;20024;-44
2021/03/29 08:02:49;;;;;;;12.52;3.88;;;13.40;88.50;;;;;;5084418;28;20039;-45
2021/03/29 08:05:15;;;;;;;8.88;3.20;;;13.40;90.40;;;;;;5081291;28;20024;-45
2021/03/29 08:07:44;;;;;;;12.40;3.50;;;13.70;88.60;;;;;;5085806;28;20440;-45
2021/03/29 08:10:13;;;;;;;12.45;3.70;;;13.80;86.10;;;;;;5083611;28;20139;-45
2021/03/29 08:12:58;;;;;;;9.30;3.67;;;14.00;84.70;;;;;;5083353;28;20721;-45
2021/03/29 08:16:01;;;;;;;10.77;3.60;;;14.00;85.90;;;;;;5088817;28;20376;-45
2021/03/29 08:18:27;;;;;;;9.13;3.40;;;14.10;84.60;;;;;;5050521;28;20143;-45
2021/03/29 08:20:53;;;;;;;13.45;3.70;;;14.30;83.20;;;;;;5085670;28;20112;-45
2021/03/29 08:23:36;;;;;;;15.68;3.63;;;14.70;81.70;;;;;;5068131;28;20541;-45
2021/03/29 08:26:12;;;;;;;11.65;4.13;;;15.10;78.90;;;;;;5084906;28;20109;-45
2021/03/29 08:29:08;;;;;;;12.73;3.17;;;15.80;76.90;;;;;;5084735;28;20024;-44
2021/03/29 08:32:02;;;;;;;12.65;3.75;;;16.60;72.20;;;;;;5095741;28;20557;-44
2021/03/29 08:34:29;;;;;;;8.70;3.15;;;17.00;69.10;;;;;;5084812;28;20099;-44
2021/03/29 08:37:04;;;;;;;12.45;3.58;;;17.30;68.00;;;;;;5084379;28;20485;-44
2021/03/29 08:39:35;;;;;;;10.70;3.47;;;17.40;66.10;;;;;;5085340;28;20120;-44
2021/03/29 08:42:02;;;;;;;11.55;3.53;;;17.30;66.00;;;;;;5085819;28;20393;-43
2021/03/29 08:44:29;;;;;;;12.38;3.88;;;16.80;67.60;;;;;;5085173;28;20020;-44
2021/03/29 08:46:57;;;;;;;9.07;3.28;;;16.80;65.80;;;;;;5084688;28;20330;-45
2021/03/29 08:49:23;;;;;;;12.93;3.55;;;16.40;68.20;;;;;;5085346;28;20067;-45
2021/03/29 08:51:50;;;;;;;10.32;4.25;;;16.80;67.10;;;;;;5085453;28;20035;-44
2021/03/29 08:54:17;;;;;;;6.75;3.33;;;16.90;66.70;;;;;;5085719;28;20036;-45
2021/03/29 08:56:49;;;;;;;9.30;3.45;;;17.40;65.30;;;;;;5080731;28;20043;-45
2021/03/29 08:59:14;;;;;;;13.68;3.95;;;18.30;62.90;;;;;;5089320;28;20544;-45
2021/03/29 09:01:40;;;;;;;9.93;3.90;;;19.20;59.50;;;;;;5070592;28;20016;-46
2021/03/29 09:04:11;;;;;;;15.07;4.13;;;20.40;56.90;;;;;;5089120;28;20499;-45
2021/03/29 09:06:37;;;;;;;8.25;3.38;;;21.30;54.30;;;;;;5088812;28;20052;-45
2021/03/29 09:09:17;;;;;;;10.20;3.30;;;22.70;52.10;;;;;;5089221;28;20067;-46
2021/03/29 09:11:45;;;;;;;;;;;23.30;46.50;;;;;;5090329;28;20508;-47
2021/03/29 09:14:14;;;;;;;6.43;2.65;;;23.70;47.70;;;;;;5109572;28;20342;-45
2021/03/29 09:16:40;;;;;;;10.40;3.42;;;24.90;44.30;;;;;;5101851;28;20055;-45
2021/03/29 09:19:18;;;;;;;7.82;3.00;;;25.20;42.80;;;;;;5098625;28;20050;-46
2021/03/29 09:21:53;;;;;;;9.43;3.38;;;25.00;42.70;;;;;;5070550;28;20043;-45
2021/03/29 09:24:21;;;;;;;7.30;2.90;;;24.80;44.40;;;;;;5088484;28;20103;-46
2021/03/29 09:27:05;;;;;;;7.65;3.40;;;23.60;44.20;;;;;;5088019;28;20028;-46
2021/03/29 09:29:38;;;;;;;9.65;3.70;;;24.80;44.70;;;;;;5088710;28;20172;-46
2021/03/29 09:32:13;;;;;;;10.82;2.92;;;26.30;41.70;;;;;;5088668;28;20103;-47
2021/03/29 09:34:39;;;;;;;6.85;3.17;;;26.10;40.10;;;;;;5088633;28;20040;-45
2021/03/29 09:37:23;;;;;;;8.77;3.17;;;26.00;40.30;;;;;;5087806;28;20109;-45
2021/03/29 09:39:56;;;;;;;7.22;2.72;;;26.70;39.50;;;;;;5093568;28;20028;-50
2021/03/29 09:42:42;;;;;;;8.48;3.40;;;26.90;40.40;;;;;;5068346;28;20020;-47
2021/03/29 09:45:12;;;;;;;9.05;3.40;;;27.70;38.80;;;;;;5067883;28;20029;-45
2021/03/29 09:47:38;;;;;;;;;;;27.40;39.50;;;;;;5033654;28;20050;-46
2021/03/29 09:50:06;;;;;;;8.35;3.30;;;27.00;38.80;;;;;;5076104;28;19919;-46
2021/03/29 09:52:39;;;;;;;15.88;3.67;;;27.50;39.30;;;;;;5090402;28;20016;-46
2021/03/29 09:55:05;;;;;;;5.00;2.80;;;28.50;37.50;;;;;;5107665;28;20125;-46
2021/03/29 09:57:38;;;;;;;12.75;3.50;;;28.40;37.40;;;;;;5084478;28;20160;-45
2021/03/29 10:00:19;;;;;;;8.25;2.95;;;27.60;37.00;;;;;;5078853;28;20016;-47
2021/03/29 10:02:46;;;;;;;8.02;3.30;;;27.00;38.40;;;;;;5087975;28;20537;-45
2021/03/29 10:05:13;;;;;;;9.15;3.30;;;26.40;38.60;;;;;;5087750;28;20018;-46
2021/03/29 10:07:52;;;;;;;8.40;2.92;;;25.20;38.80;;;;;;5087929;28;20038;-45
2021/03/29 10:10:31;;;;;;;11.27;3.33;;;24.40;41.20;;;;;;5086769;28;20107;-45
2021/03/29 10:13:08;;;;;;;11.95;3.60;;;23.80;41.90;;;;;;5069707;28;20093;-46
2021/03/29 10:15:35;;;;;;;14.60;3.63;;;24.40;42.10;;;;;;5087043;28;20536;-45
2021/03/29 10:18:12;;;;;;;6.75;2.35;;;25.20;41.10;;;;;;5068990;28;20024;-46
2021/03/29 10:20:43;;;;;;;15.55;3.25;;;26.20;39.40;;;;;;5092151;28;20031;-46
2021/03/29 10:23:29;;;;;;;9.38;2.80;;;26.90;37.80;;;;;;5087550;28;20607;-45
2021/03/29 10:26:19;;;;;;;7.22;2.58;;;28.00;37.30;;;;;;5094948;28;20038;-46
2021/03/29 10:29:02;;;;;;;6.05;2.70;;;28.40;36.70;;;;;;5094856;28;20092;-45
2021/03/29 10:31:31;;;;;;;9.88;2.95;;;28.20;36.70;;;;;;5088573;28;20020;-47
2021/03/29 10:33:58;;;;;;;7.75;2.78;;;27.70;36.40;;;;;;5087273;28;20028;-46
2021/03/29 10:36:26;;;;;;;10.10;2.80;;;28.40;36.90;;;;;;5086222;28;20439;-44
2021/03/29 10:38:53;;;;;;;4.93;2.40;;;28.70;35.00;;;;;;5085437;28;20047;-46
2021/03/29 10:41:20;;;;;;;5.90;2.50;;;28.40;35.90;;;;;;5092308;28;20515;-46
2021/03/29 10:43:46;;;;;;;7.95;2.95;;;28.90;34.80;;;;;;5097577;28;20380;-47
2021/03/29 10:46:12;;;;;;;5.65;2.67;;;28.90;35.80;;;;;;5092986;28;20027;-46
2021/03/29 10:48:39;;;;;;;9.00;3.08;;;29.60;34.30;;;;;;5101928;28;20032;-46
2021/03/29 10:51:06;;;;;;;5.72;2.97;;;29.40;35.80;;;;;;5096228;28;20020;-47
2021/03/29 10:53:33;;;;;;;7.55;2.88;;;30.20;34.80;;;;;;5097446;28;20025;-47
2021/03/29 10:55:59;;;;;;;6.57;2.67;;;30.00;33.40;;;;;;5093881;28;20107;-48
2021/03/29 10:58:24;;;;;;;5.93;3.28;;;30.40;34.20;;;;;;5066996;28;20154;-46
2021/03/29 11:00:50;;;;;;;6.80;2.65;;;29.60;35.00;;;;;;5084398;28;20028;-46
2021/03/29 11:03:16;;;;;;;6.82;2.38;;;30.00;35.40;;;;;;5096246;28;20034;-47
2021/03/29 11:05:41;;;;;;;6.57;2.53;;;29.80;32.40;;;;;;5088459;28;20028;-46
2021/03/29 11:08:07;;;;;;;6.15;2.40;;;29.70;32.70;;;;;;5095021;28;20036;-47
2021/03/29 11:10:33;;;;;;;4.78;2.05;;;29.80;32.90;;;;;;5094700;28;20086;-46
2021/03/29 11:13:00;;;;;;;7.35;2.53;;;29.60;33.90;;;;;;5078321;28;20022;-46
2021/03/29 11:15:29;;;;;;;6.88;2.88;;;29.80;32.70;;;;;;5086354;28;20024;-46
2021/03/29 11:17:54;;;;;;;8.27;2.38;;;29.10;34.30;;;;;;5086667;28;20050;-46
2021/03/29 11:20:20;;;;;;;8.05;2.83;;;29.50;33.10;;;;;;5088690;28;20382;-46
2021/03/29 11:22:46;;;;;;;7.35;2.65;;;28.30;33.80;;;;;;5073262;28;20096;-46
2021/03/29 11:25:13;;;;;;;7.10;2.55;;;28.00;34.30;;;;;;5073791;28;20046;-45
2021/03/29 11:27:38;;;;;;;7.78;2.47;;;28.30;35.80;;;;;;5088330;28;20759;-46
2021/03/29 11:30:09;;;;;;;6.10;2.58;;;29.10;33.70;;;;;;5084744;28;20036;-45
2021/03/29 11:32:37;;;;;;;10.00;3.10;;;28.60;34.20;;;;;;5073927;28;20519;-45
2021/03/29 11:35:04;;;;;;;6.30;2.08;;;28.50;33.20;;;;;;5084387;28;20016;-45
2021/03/29 11:37:30;;;;;;;7.13;3.17;;;29.10;35.20;;;;;;5083280;28;20130;-45
2021/03/29 11:39:57;;;;;;;5.75;2.78;;;29.20;32.40;;;;;;5085312;28;20126;-45
2021/03/29 11:42:22;;;;;;;4.82;2.20;;;29.70;33.70;;;;;;5075357;28;20024;-46
2021/03/29 11:44:49;;;;;;;5.95;2.53;;;30.10;32.30;;;;;;5089225;28;20024;-45
2021/03/29 11:47:15;;;;;;;3.58;2.20;;;29.90;32.40;;;;;;5088736;28;20459;-45
2021/03/29 11:49:41;;;;;;;4.85;2.15;;;30.10;33.40;;;;;;5097026;28;20098;-46
2021/03/29 11:52:07;;;;;;;6.20;2.90;;;29.70;34.00;;;;;;5094682;28;20111;-47
2021/03/29 11:54:32;;;;;;;5.32;2.30;;;29.20;31.90;;;;;;5095195;28;20027;-46
2021/03/29 11:56:58;;;;;;;6.95;3.00;;;28.80;33.60;;;;;;5095644;28;20111;-47
2021/03/29 11:59:25;;;;;;;7.90;2.80;;;28.80;33.50;;;;;;5076186;28;20055;-45
2021/03/29 12:01:54;;;;;;;7.45;2.83;;;29.10;33.10;;;;;;5091798;28;20115;-46
2021/03/29 12:04:26;;;;;;;4.03;2.00;;;28.60;32.90;;;;;;5095346;28;20053;-45
2021/03/29 12:06:58;;;;;;;6.05;2.83;;;28.60;33.80;;;;;;5095648;28;20011;-47
2021/03/29 12:09:41;;;;;;;9.88;2.50;;;29.10;35.20;;;;;;5094979;28;20028;-46
2021/03/29 12:12:07;;;;;;;7.63;2.90;;;29.60;34.10;;;;;;5095027;28;20016;-48
2021/03/29 12:14:38;;;;;;;8.57;2.63;;;28.50;33.30;;;;;;5092285;28;20032;-45
2021/03/29 12:17:10;;;;;;;3.90;2.28;;;28.50;34.70;;;;;;5075543;28;20396;-46
2021/03/29 12:19:42;;;;;;;6.20;2.75;;;28.80;36.60;;;;;;5089503;28;20306;-46
2021/03/29 12:22:19;;;;;;;8.18;3.15;;;28.80;34.90;;;;;;5089172;28;20024;-46
2021/03/29 12:24:50;;;;;;;5.28;2.92;;;28.40;35.60;;;;;;5091115;28;20032;-48
2021/03/29 12:27:16;;;;;;;8.60;3.38;;;28.40;35.20;;;;;;5091481;28;20032;-46
2021/03/29 12:29:44;;;;;;;9.90;3.60;;;27.50;35.50;;;;;;5077509;28;20393;-45
2021/03/29 12:32:15;;;;;;;6.47;2.80;;;26.80;36.10;;;;;;5095345;28;20497;-46
2021/03/29 12:34:54;;;;;;;8.05;3.05;;;26.60;38.40;;;;;;5099332;28;20055;-45
2021/03/29 12:37:23;;;;;;;6.53;3.08;;;26.70;36.50;;;;;;5092487;28;20393;-44
2021/03/29 12:40:11;;;;;;;10.13;3.53;;;26.20;36.80;;;;;;5087261;28;20042;-45
2021/03/29 12:45:26;;;;;;;8.48;3.35;;;25.10;38.00;;;;;;5071517;28;20389;-45
2021/03/29 12:47:53;;;;;;;10.40;3.10;;;25.20;40.90;;;;;;5094346;28;20032;-46
2021/03/29 12:50:20;;;;;;;9.00;3.20;;;25.10;39.90;;;;;;5095129;28;20397;-45
2021/03/29 12:52:47;;;;;;;8.95;3.15;;;25.10;39.20;;;;;;5096578;28;20077;-46
2021/03/29 12:55:15;;;;;;;10.25;3.13;;;25.20;39.50;;;;;;5096617;28;20015;-45
2021/03/29 12:57:42;;;;;;;9.27;3.42;;;25.30;39.60;;;;;;5070865;28;20075;-48